Portada
METAR-TAF:

METAR-TAF

Aeroports :

Esperance, Austràlia

latitud: 33-41-04S, longitud: 121-49-22E, altitud: 143 m

Observació

L'informe es va fer fa 20 minuts, a les 05:00 UTC
Vent 11 kt del Nord/Nord-Est, variant entre Nord i Est/Nord-Est
Temperatura 31°C
Humitat 18%
Pressió 1013 hPa
Visibilitat 10 km o més

METAR: YESP 140500Z AUTO 02011KT 010V070 9999 // NCD 31/04 Q1013

Hora: 13:20 (05:20 UTC)


TAF: manca

Observacions i pronòstics meteorològics de més de 4000 aeroports (METAR i TAF).

Les estacions disponibles són els punts grocs i vermells al mapa.

Posi el ratolí al punt desitjat per veure el nom de l'estació.

Feu clic per veure les observacions i els pronòstics meteorològics.

Per canviar el mapa: feu clic els botons verds amb una creu de color negre per apropar; al botó verd amb un guió per allunyar la imatge; o en les fletxes verdes per a mapes adjacents.


METAR-TAF: